createdAt,value
2018-09-03T00:01:40.036Z,10.70
2018-09-03T00:06:43.525Z,10.17
2018-09-03T00:11:46.992Z,10.97
2018-09-03T00:16:50.327Z,11.03
2018-09-03T00:21:54.152Z,8.80
2018-09-03T00:26:57.602Z,9.33
2018-09-03T00:32:06.361Z,9.40
2018-09-03T00:37:15.033Z,9.03
2018-09-03T00:42:24.208Z,9.30
2018-09-03T00:47:27.915Z,8.60
2018-09-03T00:52:31.584Z,8.57
2018-09-03T00:57:35.268Z,9.77
2018-09-03T01:02:38.975Z,9.80
2018-09-03T01:07:42.606Z,9.75
2018-09-03T01:12:46.310Z,9.10
2018-09-03T01:17:50.085Z,10.43
2018-09-03T01:22:53.938Z,9.60
2018-09-03T01:27:57.678Z,9.70
2018-09-03T01:33:01.161Z,9.67
2018-09-03T01:38:05.233Z,10.00
2018-09-03T01:43:08.937Z,9.67
2018-09-03T01:48:12.402Z,9.17
2018-09-03T01:53:15.825Z,8.93
2018-09-03T01:58:19.841Z,8.60
2018-09-03T02:03:23.584Z,9.50
2018-09-03T02:08:27.198Z,10.20
2018-09-03T02:13:31.573Z,8.20
2018-09-03T02:18:35.010Z,9.70
2018-09-03T02:23:38.790Z,8.17
2018-09-03T02:28:42.329Z,8.33
2018-09-03T02:33:45.657Z,8.87
2018-09-03T02:38:49.284Z,9.07
2018-09-03T02:43:52.600Z,8.73
2018-09-03T02:48:56.006Z,8.97
2018-09-03T02:53:59.520Z,9.73
2018-09-03T02:59:02.932Z,9.00
2018-09-03T03:04:06.472Z,10.00
2018-09-03T03:09:10.080Z,9.97
2018-09-03T03:14:13.653Z,8.97
2018-09-03T03:19:18.169Z,8.50
2018-09-03T03:24:21.687Z,9.97
2018-09-03T03:29:25.367Z,8.07
2018-09-03T03:34:28.967Z,8.47
2018-09-03T03:39:32.412Z,9.80
2018-09-03T03:44:35.817Z,8.83
2018-09-03T03:49:39.449Z,10.80
2018-09-03T03:54:43.025Z,10.53
2018-09-03T03:59:46.553Z,10.60
2018-09-03T04:04:50.235Z,9.67
2018-09-03T04:09:53.573Z,11.17
2018-09-03T04:14:57.074Z,10.87
2018-09-03T04:20:02.553Z,10.90
2018-09-03T04:25:06.056Z,10.47
2018-09-03T04:30:09.555Z,10.23
2018-09-03T04:35:12.978Z,10.73
2018-09-03T04:40:16.492Z,11.77
2018-09-03T04:45:19.895Z,9.97
2018-09-03T04:50:23.301Z,10.13
2018-09-03T04:55:26.788Z,12.30
2018-09-03T05:00:30.163Z,12.03
2018-09-03T05:05:33.534Z,11.93
2018-09-03T05:10:36.893Z,11.47
2018-09-03T05:15:40.191Z,11.87
2018-09-03T05:20:43.523Z,11.17
2018-09-03T05:25:50.491Z,10.77
2018-09-03T05:30:53.887Z,13.23
2018-09-03T05:35:57.377Z,14.77
2018-09-03T05:41:00.701Z,12.47
2018-09-03T05:46:04.125Z,13.90
2018-09-03T05:51:07.633Z,11.93
2018-09-03T05:56:11.112Z,14.67
2018-09-03T06:01:14.550Z,13.93
2018-09-03T06:06:18.070Z,12.63
2018-09-03T06:11:21.526Z,12.40
2018-09-03T06:16:25.298Z,11.83
2018-09-03T06:21:28.648Z,11.10
2018-09-03T06:26:32.469Z,13.10
2018-09-03T06:31:35.973Z,9.53
2018-09-03T06:36:39.827Z,11.33
2018-09-03T06:41:43.341Z,11.07
2018-09-03T06:46:46.689Z,11.30
2018-09-03T06:51:50.091Z,12.60
2018-09-03T06:56:53.541Z,12.17
2018-09-03T07:01:57.278Z,12.30
2018-09-03T07:07:00.680Z,10.93
2018-09-03T07:12:04.175Z,12.53
2018-09-03T07:17:07.528Z,11.40
2018-09-03T07:22:10.826Z,12.10
2018-09-03T07:27:14.384Z,11.23
2018-09-03T07:32:17.693Z,10.57
2018-09-03T07:37:21.186Z,10.27
2018-09-03T07:42:24.501Z,10.97
2018-09-03T07:47:27.916Z,9.97
2018-09-03T07:52:31.200Z,10.13
2018-09-03T07:57:35.436Z,10.85
2018-09-03T08:02:38.782Z,10.37
2018-09-03T08:07:42.211Z,10.30
2018-09-03T08:12:45.611Z,10.87
2018-09-03T08:17:48.962Z,10.60
2018-09-03T08:22:52.261Z,10.58
2018-09-03T08:27:55.909Z,10.23
2018-09-03T08:32:59.236Z,9.37
2018-09-03T08:38:02.626Z,8.80
2018-09-03T08:43:06.332Z,9.23
2018-09-03T08:48:14.180Z,9.77
2018-09-03T08:53:17.629Z,9.43
2018-09-03T08:58:21.136Z,10.10
2018-09-03T09:03:29.722Z,10.60
2018-09-03T09:08:33.212Z,8.50
2018-09-03T09:13:36.721Z,9.00
2018-09-03T09:18:40.457Z,10.17
2018-09-03T09:23:44.014Z,9.37
2018-09-03T09:28:47.615Z,8.93
2018-09-03T09:33:51.265Z,10.03
2018-09-03T09:38:54.615Z,8.20
2018-09-03T09:43:58.002Z,8.27
2018-09-03T09:49:01.411Z,8.00
2018-09-03T09:54:04.746Z,7.97
2018-09-03T09:59:08.253Z,5.97
2018-09-03T10:04:11.741Z,6.75
2018-09-03T10:09:15.209Z,7.13
2018-09-03T10:14:18.724Z,6.80
2018-09-03T10:19:22.104Z,6.20
2018-09-03T10:24:25.520Z,5.07
2018-09-03T10:29:28.864Z,4.37
2018-09-03T10:34:32.364Z,5.33
2018-09-03T10:39:35.853Z,5.63
2018-09-03T10:44:39.493Z,5.53
2018-09-03T10:49:43.242Z,5.60
2018-09-03T10:54:46.836Z,4.23
2018-09-03T10:59:50.501Z,4.97
2018-09-03T11:04:53.954Z,5.23
2018-09-03T11:09:57.517Z,7.40
2018-09-03T11:15:00.910Z,6.17
2018-09-03T11:20:06.856Z,6.93
2018-09-03T11:25:10.382Z,7.13
2018-09-03T11:30:13.799Z,6.35
2018-09-03T11:35:17.468Z,5.53
2018-09-03T11:40:21.610Z,5.83
2018-09-03T11:45:25.068Z,5.20
2018-09-03T11:50:28.230Z,4.33
2018-09-03T11:55:31.716Z,4.43
2018-09-03T12:00:35.166Z,3.57
2018-09-03T12:05:38.666Z,4.67
2018-09-03T12:10:41.964Z,4.50
2018-09-03T12:15:50.956Z,4.23
2018-09-03T12:20:54.439Z,4.80
2018-09-03T12:25:57.809Z,4.30
2018-09-03T12:31:01.152Z,5.10
2018-09-03T12:36:05.145Z,4.13
2018-09-03T12:41:08.756Z,4.27
2018-09-03T12:46:12.318Z,4.37
2018-09-03T12:51:15.998Z,2.33
2018-09-03T12:56:19.450Z,2.30
2018-09-03T13:01:23.006Z,2.20
2018-09-03T13:06:26.481Z,2.03
2018-09-03T13:11:29.969Z,2.13
2018-09-03T13:16:33.498Z,2.93
2018-09-03T13:21:36.960Z,3.60
2018-09-03T13:26:40.597Z,4.87
2018-09-03T13:31:44.091Z,4.53
2018-09-03T13:36:48.620Z,4.93
2018-09-03T13:41:52.215Z,4.87
2018-09-03T13:46:55.661Z,4.80
2018-09-03T13:51:59.391Z,4.17
2018-09-03T13:57:03.133Z,4.97
2018-09-03T14:02:06.685Z,5.30
2018-09-03T14:07:10.140Z,4.57
2018-09-03T14:12:13.668Z,4.60
2018-09-03T14:17:17.141Z,4.90
2018-09-03T14:22:20.813Z,5.20
2018-09-03T14:27:24.373Z,4.80
2018-09-03T14:32:27.799Z,5.50
2018-09-03T14:37:31.269Z,6.20
2018-09-03T14:42:34.914Z,5.87
2018-09-03T14:47:38.519Z,5.67
2018-09-03T14:52:42.083Z,6.13
2018-09-03T14:57:45.591Z,5.90
2018-09-03T15:02:48.927Z,6.70
2018-09-03T15:07:52.406Z,6.67
2018-09-03T15:12:56.097Z,6.37
2018-09-03T15:17:59.548Z,7.00
2018-09-03T15:23:03.120Z,7.43
2018-09-03T15:28:06.538Z,6.70
2018-09-03T15:33:10.097Z,7.00
2018-09-03T15:38:13.403Z,6.30
2018-09-03T15:43:16.806Z,5.30
2018-09-03T15:48:20.211Z,6.03
2018-09-03T15:53:24.446Z,5.47
2018-09-03T15:58:27.843Z,5.57
2018-09-03T16:03:31.293Z,6.20
2018-09-03T16:08:34.658Z,6.20
2018-09-03T16:13:38.035Z,6.07
2018-09-03T16:18:41.404Z,6.83
2018-09-03T16:23:44.904Z,5.70
2018-09-03T16:28:48.370Z,5.43
2018-09-03T16:33:51.904Z,5.97
2018-09-03T16:38:55.279Z,6.27
2018-09-03T16:43:58.646Z,6.33
2018-09-03T16:49:02.115Z,5.47
2018-09-03T16:54:05.497Z,6.20
2018-09-03T16:59:10.115Z,6.10
2018-09-03T17:04:13.829Z,6.53
2018-09-03T17:09:17.331Z,6.40
2018-09-03T17:14:20.728Z,6.13
2018-09-03T17:19:24.303Z,6.90
2018-09-03T17:24:27.839Z,6.27
2018-09-03T17:29:31.518Z,6.77
2018-09-03T17:34:34.870Z,6.80
2018-09-03T17:39:38.415Z,5.30
2018-09-03T17:44:42.195Z,5.37
2018-09-03T17:49:45.792Z,5.57
2018-09-03T17:54:49.304Z,5.83
2018-09-03T17:59:52.753Z,6.67
2018-09-03T18:04:56.516Z,6.80
2018-09-03T18:10:00.083Z,5.87
2018-09-03T18:15:03.824Z,5.80
2018-09-03T18:20:07.513Z,6.43
2018-09-03T18:25:11.071Z,6.20
2018-09-03T18:30:14.909Z,7.10
2018-09-03T18:35:18.451Z,6.87
2018-09-03T18:40:22.202Z,6.13
2018-09-03T18:45:26.100Z,5.90
2018-09-03T18:50:29.673Z,6.73
2018-09-03T18:55:33.226Z,5.70
2018-09-03T19:00:36.711Z,6.50
2018-09-03T19:05:40.292Z,6.47
2018-09-03T19:10:43.938Z,6.63
2018-09-03T19:15:47.618Z,6.47
2018-09-03T19:20:51.254Z,6.23
2018-09-03T19:25:54.893Z,6.87
2018-09-03T19:30:58.440Z,6.97
2018-09-03T19:36:01.648Z,6.25
2018-09-03T19:41:05.201Z,6.50
2018-09-03T19:46:08.599Z,6.07
2018-09-03T19:51:12.167Z,6.53
2018-09-03T19:56:15.641Z,5.60
2018-09-03T20:01:19.184Z,6.10
2018-09-03T20:06:22.995Z,5.30
2018-09-03T20:11:26.498Z,6.03
2018-09-03T20:16:30.326Z,5.62
2018-09-03T20:21:34.109Z,5.67
2018-09-03T20:26:37.712Z,5.27
2018-09-03T20:31:41.337Z,3.87
2018-09-03T20:36:44.937Z,5.30
2018-09-03T20:41:48.362Z,4.95
2018-09-03T20:46:51.939Z,5.37
2018-09-03T20:51:55.509Z,4.77
2018-09-03T20:56:58.926Z,5.00
2018-09-03T21:02:02.466Z,4.97
2018-09-03T21:07:06.049Z,5.30
2018-09-03T21:12:09.560Z,4.53
2018-09-03T21:17:13.138Z,5.07
2018-09-03T21:22:16.763Z,5.07
2018-09-03T21:27:20.339Z,5.23
2018-09-03T21:32:23.686Z,4.83
2018-09-03T21:37:27.261Z,5.50
2018-09-03T21:42:30.728Z,5.77
2018-09-03T21:47:34.183Z,5.33
2018-09-03T21:52:38.185Z,5.27
2018-09-03T21:57:42.182Z,5.63
2018-09-03T22:02:46.157Z,5.30
2018-09-03T22:07:49.545Z,5.30
2018-09-03T22:12:53.064Z,5.20
2018-09-03T22:17:56.569Z,5.80
2018-09-03T22:23:00.103Z,5.10
2018-09-03T22:28:03.429Z,5.73
2018-09-03T22:33:06.860Z,6.40
2018-09-03T22:38:10.237Z,6.83
2018-09-03T22:43:13.676Z,5.70
2018-09-03T22:48:17.070Z,6.80
2018-09-03T22:53:20.402Z,5.83
2018-09-03T22:58:23.860Z,6.40
2018-09-03T23:03:27.224Z,6.77
2018-09-03T23:08:30.687Z,5.13
2018-09-03T23:13:34.060Z,6.03
2018-09-03T23:18:37.409Z,6.43
2018-09-03T23:23:40.773Z,7.87
2018-09-03T23:28:44.142Z,7.77
2018-09-03T23:33:47.644Z,8.30
2018-09-03T23:38:50.797Z,7.20
2018-09-03T23:43:54.324Z,7.47
2018-09-03T23:48:57.720Z,7.90
2018-09-03T23:54:01.124Z,6.90
2018-09-03T23:59:04.618Z,7.83
